createdAt,value
2022-11-16T00:01:36.885Z,2.50
2022-11-16T00:04:04.515Z,2.45
2022-11-16T00:06:31.832Z,2.03
2022-11-16T00:09:19.586Z,2.70
2022-11-16T00:11:46.960Z,2.30
2022-11-16T00:14:13.887Z,2.35
2022-11-16T00:16:41.077Z,2.10
2022-11-16T00:19:08.487Z,2.70
2022-11-16T00:21:35.540Z,2.75
2022-11-16T00:24:03.382Z,3.00
2022-11-16T00:26:30.387Z,2.97
2022-11-16T00:28:57.647Z,2.83
2022-11-16T00:31:25.093Z,3.40
2022-11-16T00:33:51.998Z,3.35
2022-11-16T00:36:19.376Z,3.00
2022-11-16T00:38:47.591Z,3.45
2022-11-16T00:41:14.804Z,3.40
2022-11-16T00:43:41.921Z,3.28
2022-11-16T00:46:09.961Z,3.60
2022-11-16T00:48:36.972Z,3.35
2022-11-16T00:51:04.364Z,2.72
2022-11-16T00:53:31.361Z,2.95
2022-11-16T00:55:58.291Z,2.95
2022-11-16T00:58:25.266Z,3.20
2022-11-16T01:00:52.221Z,3.25
2022-11-16T01:03:19.269Z,2.83
2022-11-16T01:05:46.218Z,3.08
2022-11-16T01:08:14.525Z,2.92
2022-11-16T01:10:42.088Z,2.95
2022-11-16T01:13:10.555Z,2.50
2022-11-16T01:15:37.415Z,2.67
2022-11-16T01:18:04.508Z,2.88
2022-11-16T01:20:31.379Z,2.90
2022-11-16T01:22:58.310Z,2.67
2022-11-16T01:25:25.231Z,2.50
2022-11-16T01:27:52.325Z,2.40
2022-11-16T01:30:19.348Z,2.50
2022-11-16T01:32:46.625Z,2.60
2022-11-16T01:35:18.978Z,2.72
2022-11-16T01:37:46.047Z,2.40
2022-11-16T01:40:14.718Z,2.80
2022-11-16T01:42:42.127Z,2.40
2022-11-16T01:45:26.309Z,2.50
2022-11-16T01:47:54.773Z,2.40
2022-11-16T01:50:22.870Z,1.83
2022-11-16T01:52:59.534Z,2.28
2022-11-16T01:55:30.829Z,1.90
2022-11-16T01:57:58.224Z,2.33
2022-11-16T02:00:25.253Z,1.80
2022-11-16T02:02:52.214Z,2.20
2022-11-16T02:05:27.718Z,2.17
2022-11-16T02:08:52.206Z,2.17
2022-11-16T02:11:43.088Z,2.13
2022-11-16T02:14:32.079Z,2.30
2022-11-16T02:17:20.767Z,2.30
2022-11-16T02:20:25.335Z,2.17
2022-11-16T02:22:53.174Z,2.40
2022-11-16T02:25:59.867Z,2.10
2022-11-16T02:28:59.139Z,2.38
2022-11-16T02:31:33.767Z,2.00
2022-11-16T02:34:01.654Z,1.65
2022-11-16T02:36:29.093Z,2.00
2022-11-16T02:39:03.218Z,2.30
2022-11-16T02:41:35.209Z,1.95
2022-11-16T02:44:11.316Z,2.22
2022-11-16T02:46:40.705Z,2.13
2022-11-16T02:49:16.861Z,1.98
2022-11-16T02:51:44.834Z,2.28
2022-11-16T02:54:20.414Z,2.40
2022-11-16T02:57:02.689Z,2.70
2022-11-16T02:59:42.965Z,2.08
2022-11-16T03:02:28.807Z,2.60
2022-11-16T03:05:05.315Z,2.70
2022-11-16T03:07:46.584Z,2.35
2022-11-16T03:10:36.429Z,1.92
2022-11-16T03:13:05.654Z,2.03
2022-11-16T03:15:36.039Z,1.98
2022-11-16T03:18:05.065Z,1.98
2022-11-16T03:20:35.404Z,1.40
2022-11-16T03:23:06.552Z,1.92
2022-11-16T03:25:39.660Z,1.52
2022-11-16T03:28:34.317Z,2.00
2022-11-16T03:31:25.880Z,1.58
2022-11-16T03:33:57.339Z,1.65
2022-11-16T03:36:32.465Z,2.05
2022-11-16T03:39:04.527Z,1.90
2022-11-16T03:41:33.379Z,1.95
2022-11-16T03:44:01.181Z,1.80
2022-11-16T03:46:28.748Z,2.28
2022-11-16T03:48:59.651Z,2.28
2022-11-16T03:51:26.707Z,2.10
2022-11-16T03:53:53.749Z,1.80
2022-11-16T03:56:20.872Z,1.90
2022-11-16T03:58:48.083Z,2.22
2022-11-16T04:01:15.098Z,2.10
2022-11-16T04:03:42.149Z,2.15
2022-11-16T04:06:29.019Z,1.90
2022-11-16T04:09:14.368Z,2.38
2022-11-16T04:11:59.968Z,1.83
2022-11-16T04:14:47.101Z,2.22
2022-11-16T04:17:34.371Z,2.97
2022-11-16T04:20:20.310Z,2.42
2022-11-16T04:23:22.341Z,3.37
2022-11-16T04:25:51.176Z,3.95
2022-11-16T04:28:23.005Z,3.75
2022-11-16T04:31:12.145Z,3.30
2022-11-16T04:33:57.646Z,2.90
2022-11-16T04:36:42.989Z,3.30
2022-11-16T04:39:09.833Z,2.30
2022-11-16T04:41:55.352Z,2.50
2022-11-16T04:44:27.263Z,2.05
2022-11-16T04:47:08.756Z,1.83
2022-11-16T04:49:35.824Z,1.70
2022-11-16T04:52:02.834Z,1.80
2022-11-16T04:54:29.841Z,1.50
2022-11-16T04:56:56.780Z,1.65
2022-11-16T04:59:23.780Z,1.20
2022-11-16T05:02:09.145Z,1.70
2022-11-16T05:04:41.590Z,1.70
2022-11-16T05:07:12.126Z,2.15
2022-11-16T05:09:48.055Z,1.60
2022-11-16T05:12:17.925Z,2.00
2022-11-16T05:14:45.078Z,2.13
2022-11-16T05:17:13.005Z,2.53
2022-11-16T05:19:59.077Z,2.22
2022-11-16T05:22:26.566Z,1.65
2022-11-16T05:24:53.750Z,2.70
2022-11-16T05:27:23.175Z,1.92
2022-11-16T05:29:51.044Z,2.38
2022-11-16T05:32:20.248Z,1.77
2022-11-16T05:34:47.846Z,1.95
2022-11-16T05:37:16.139Z,1.80
2022-11-16T05:39:43.822Z,1.80
2022-11-16T05:42:11.329Z,1.90
2022-11-16T05:44:45.576Z,1.92
2022-11-16T05:47:19.466Z,2.03
2022-11-16T05:49:47.449Z,2.10
2022-11-16T05:52:16.073Z,2.35
2022-11-16T05:54:56.703Z,2.15
2022-11-16T05:57:27.396Z,2.08
2022-11-16T06:03:26.469Z,2.00
2022-11-16T06:07:03.224Z,2.17
2022-11-16T06:09:52.597Z,2.25
2022-11-16T06:12:31.400Z,1.85
2022-11-16T06:15:08.282Z,2.22
2022-11-16T06:18:13.455Z,2.33
2022-11-16T06:20:51.348Z,2.80
2022-11-16T06:24:16.936Z,2.13
2022-11-16T06:27:16.307Z,2.13
2022-11-16T06:30:01.870Z,2.35
2022-11-16T06:33:18.582Z,2.17
2022-11-16T06:35:48.498Z,2.80
2022-11-16T06:38:30.855Z,2.38
2022-11-16T06:41:07.005Z,2.05
2022-11-16T06:43:57.405Z,2.30
2022-11-16T06:46:33.416Z,2.50
2022-11-16T06:49:18.484Z,2.25
2022-11-16T06:51:53.732Z,2.03
2022-11-16T06:54:29.418Z,2.92
2022-11-16T06:56:59.019Z,2.83
2022-11-16T07:00:04.394Z,2.55
2022-11-16T07:02:45.957Z,2.70
2022-11-16T07:05:38.391Z,1.95
2022-11-16T07:08:13.409Z,2.63
2022-11-16T07:10:54.857Z,2.40
2022-11-16T07:14:17.986Z,2.53
2022-11-16T07:17:10.899Z,2.10
2022-11-16T07:19:57.430Z,2.33
2022-11-16T07:23:15.681Z,2.35
2022-11-16T07:29:35.484Z,2.28
2022-11-16T07:32:18.746Z,2.28
2022-11-16T07:35:00.202Z,2.72
2022-11-16T07:37:41.938Z,2.42
2022-11-16T07:40:55.053Z,2.20
2022-11-16T07:43:27.933Z,2.05
2022-11-16T07:49:32.996Z,2.60
2022-11-16T07:52:13.074Z,2.00
2022-11-16T07:55:11.164Z,2.40
2022-11-16T08:00:16.877Z,2.47
2022-11-16T08:02:46.673Z,2.42
2022-11-16T08:05:16.281Z,2.38
2022-11-16T08:08:18.554Z,2.28
2022-11-16T08:10:59.105Z,2.65
2022-11-16T08:13:30.238Z,2.38
2022-11-16T08:16:13.245Z,2.65
2022-11-16T08:21:49.728Z,2.40
2022-11-16T08:24:26.370Z,2.53
2022-11-16T08:27:04.083Z,2.03
2022-11-16T08:29:31.302Z,1.95
2022-11-16T08:32:00.535Z,2.10
2022-11-16T08:34:27.632Z,2.28
2022-11-16T08:36:55.985Z,2.35
2022-11-16T08:39:26.625Z,2.20
2022-11-16T08:42:07.843Z,1.98
2022-11-16T08:44:41.333Z,1.73
2022-11-16T08:47:18.726Z,2.05
2022-11-16T08:51:15.790Z,1.80
2022-11-16T08:53:50.442Z,2.60
2022-11-16T08:56:30.898Z,2.40
2022-11-16T08:59:08.015Z,2.67
2022-11-16T09:01:38.502Z,2.78
2022-11-16T09:09:49.323Z,2.20
2022-11-16T09:12:20.770Z,2.03
2022-11-16T09:17:56.392Z,1.95
2022-11-16T09:20:40.626Z,2.28
2022-11-16T09:23:13.804Z,2.15
2022-11-16T09:25:49.644Z,2.08
2022-11-16T09:28:29.335Z,2.03
2022-11-16T09:31:50.393Z,1.98
2022-11-16T09:34:35.008Z,2.35
2022-11-16T09:37:33.769Z,2.53
2022-11-16T09:40:01.475Z,2.08
2022-11-16T09:42:55.819Z,2.42
2022-11-16T09:45:48.934Z,2.58
2022-11-16T09:48:19.729Z,1.83
2022-11-16T09:51:34.674Z,2.22
2022-11-16T10:32:11.755Z,1.98
2022-11-16T10:35:15.424Z,1.90
2022-11-16T10:37:53.780Z,2.05
2022-11-16T10:40:25.343Z,2.15
2022-11-16T10:43:06.348Z,2.17
2022-11-16T10:45:46.867Z,1.95
2022-11-16T10:48:54.214Z,1.83
2022-11-16T10:54:56.074Z,1.73
2022-11-16T10:58:31.332Z,1.50
2022-11-16T11:01:50.668Z,1.75
2022-11-16T11:19:20.383Z,1.88
2022-11-16T11:22:53.709Z,1.67
2022-11-16T11:33:15.915Z,1.60
2022-11-16T11:35:45.907Z,1.98
2022-11-16T11:38:46.835Z,2.05
2022-11-16T11:41:24.199Z,2.30
2022-11-16T11:44:07.594Z,2.38
2022-11-16T11:47:23.662Z,2.30
2022-11-16T11:49:49.237Z,2.70
2022-11-16T11:52:32.114Z,2.42
2022-11-16T11:55:08.365Z,1.80
2022-11-16T11:57:45.744Z,2.10
2022-11-16T12:00:22.561Z,1.98
2022-11-16T12:03:36.444Z,1.92
2022-11-16T12:06:31.473Z,1.80
2022-11-16T12:09:32.260Z,1.83
2022-11-16T12:12:25.203Z,2.30
2022-11-16T12:15:07.996Z,1.88
2022-11-16T12:17:57.889Z,2.10
2022-11-16T12:20:54.611Z,2.15
2022-11-16T12:23:52.775Z,2.05
2022-11-16T12:26:51.353Z,2.15
2022-11-16T12:29:28.162Z,2.65
2022-11-16T12:32:10.994Z,2.20
2022-11-16T12:38:58.319Z,3.28
2022-11-16T12:41:52.848Z,3.28
2022-11-16T12:44:33.808Z,4.00
2022-11-16T12:47:26.057Z,3.40
2022-11-16T12:49:59.944Z,3.28
2022-11-16T12:53:01.528Z,3.15
2022-11-16T12:55:44.611Z,3.53
2022-11-16T12:58:51.645Z,2.88
2022-11-16T13:01:29.560Z,3.50
2022-11-16T13:04:05.517Z,3.40
2022-11-16T13:06:49.176Z,3.35
2022-11-16T13:09:27.809Z,3.65
2022-11-16T13:11:58.244Z,3.20
2022-11-16T13:14:49.964Z,3.00
2022-11-16T13:17:25.471Z,3.42
2022-11-16T13:20:14.255Z,3.47
2022-11-16T13:23:06.795Z,3.45
2022-11-16T13:25:43.631Z,3.90
2022-11-16T13:28:40.579Z,3.40
2022-11-16T13:31:43.738Z,2.90
2022-11-16T13:34:22.998Z,2.63
2022-11-16T13:36:50.359Z,2.78
2022-11-16T13:39:22.597Z,2.67
2022-11-16T13:42:00.261Z,3.25
2022-11-16T13:44:29.320Z,4.20
2022-11-16T13:47:04.914Z,4.00
2022-11-16T13:49:41.663Z,3.63
2022-11-16T13:52:23.200Z,3.45
2022-11-16T13:55:02.908Z,2.85
2022-11-16T13:57:36.397Z,2.53
2022-11-16T14:00:05.327Z,2.90
2022-11-16T14:02:36.323Z,2.92
2022-11-16T14:05:15.876Z,3.33
2022-11-16T14:07:50.193Z,3.25
2022-11-16T14:10:38.997Z,3.22
2022-11-16T14:13:27.570Z,2.60
2022-11-16T14:16:17.910Z,3.38
2022-11-16T14:19:02.244Z,2.60
2022-11-16T14:21:51.129Z,2.17
2022-11-16T14:24:39.855Z,2.83
2022-11-16T14:27:43.247Z,2.10
2022-11-16T14:30:10.265Z,2.22
2022-11-16T14:32:46.025Z,3.00
2022-11-16T14:35:42.373Z,2.58
2022-11-16T14:38:30.783Z,2.40
2022-11-16T14:40:59.888Z,2.15
2022-11-16T14:43:42.742Z,2.08
2022-11-16T14:46:26.810Z,1.90
2022-11-16T14:48:57.830Z,1.90
2022-11-16T14:51:38.099Z,2.28
2022-11-16T14:54:31.274Z,2.03
2022-11-16T14:57:01.148Z,2.10
2022-11-16T14:59:30.609Z,1.85
2022-11-16T15:02:01.775Z,1.88
2022-11-16T15:04:30.396Z,1.50
2022-11-16T15:07:02.046Z,1.83
2022-11-16T15:09:30.864Z,2.00
2022-11-16T15:12:18.305Z,2.05
2022-11-16T15:14:50.534Z,2.00
2022-11-16T15:17:27.179Z,1.52
2022-11-16T15:20:15.329Z,1.55
2022-11-16T15:22:45.623Z,1.50
2022-11-16T15:25:31.313Z,1.73
2022-11-16T15:28:13.798Z,1.50
2022-11-16T15:30:41.189Z,2.38
2022-11-16T15:33:17.045Z,2.08
2022-11-16T15:35:44.520Z,1.83
2022-11-16T15:38:16.526Z,2.00
2022-11-16T15:40:49.796Z,2.17
2022-11-16T15:43:19.230Z,2.25
2022-11-16T15:45:47.006Z,1.50
2022-11-16T15:48:27.524Z,1.58
2022-11-16T15:51:04.058Z,1.58
2022-11-16T15:53:41.150Z,2.03
2022-11-16T15:58:42.635Z,1.90
2022-11-16T16:01:13.635Z,2.10
2022-11-16T16:03:51.683Z,2.47
2022-11-16T16:06:46.023Z,2.47
2022-11-16T16:09:28.011Z,2.10
2022-11-16T16:11:57.545Z,2.38
2022-11-16T16:14:30.229Z,2.40
2022-11-16T16:17:00.191Z,2.55
2022-11-16T16:19:44.558Z,2.65
2022-11-16T16:22:26.629Z,2.88
2022-11-16T16:24:54.210Z,2.95
2022-11-16T16:27:29.532Z,3.50
2022-11-16T16:29:59.265Z,3.50
2022-11-16T16:32:31.979Z,3.13
2022-11-16T16:35:01.217Z,3.38
2022-11-16T16:37:30.606Z,2.22
2022-11-16T16:39:58.991Z,2.55
2022-11-16T16:42:26.539Z,2.40
2022-11-16T16:44:54.154Z,2.53
2022-11-16T16:47:21.380Z,2.50
2022-11-16T16:49:50.275Z,2.63
2022-11-16T16:52:18.917Z,2.47
2022-11-16T16:54:46.819Z,2.22
2022-11-16T16:57:17.839Z,2.53
2022-11-16T16:59:46.261Z,2.08
2022-11-16T17:02:13.664Z,2.20
2022-11-16T17:04:41.297Z,2.20
2022-11-16T17:07:08.439Z,2.22
2022-11-16T17:09:35.649Z,2.25
2022-11-16T17:12:03.184Z,2.30
2022-11-16T17:14:30.269Z,1.83
2022-11-16T17:16:57.573Z,2.42
2022-11-16T17:19:25.071Z,2.20
2022-11-16T17:21:52.793Z,2.38
2022-11-16T17:24:20.264Z,2.00
2022-11-16T17:26:50.973Z,2.78
2022-11-16T17:29:18.722Z,2.35
2022-11-16T17:31:47.685Z,2.53
2022-11-16T17:34:14.937Z,2.50
2022-11-16T17:36:43.474Z,2.33
2022-11-16T17:39:10.679Z,2.80
2022-11-16T17:41:37.875Z,2.65
2022-11-16T17:44:05.978Z,2.40
2022-11-16T17:46:33.093Z,2.35
2022-11-16T17:49:00.420Z,2.90
2022-11-16T17:51:30.479Z,2.30
2022-11-16T17:53:57.690Z,2.28
2022-11-16T17:56:27.660Z,2.10
2022-11-16T17:58:55.670Z,1.85
2022-11-16T18:01:25.035Z,1.90
2022-11-16T18:03:52.534Z,2.00
2022-11-16T18:06:21.905Z,1.92
2022-11-16T18:08:49.520Z,1.80
2022-11-16T18:11:19.037Z,1.85
2022-11-16T18:13:47.075Z,2.20
2022-11-16T18:16:15.700Z,1.92
2022-11-16T18:18:44.190Z,1.70
2022-11-16T18:21:18.756Z,1.80
2022-11-16T18:23:47.511Z,1.80
2022-11-16T18:26:18.440Z,1.60
2022-11-16T18:28:46.627Z,2.00
2022-11-16T18:31:17.119Z,2.30
2022-11-16T18:33:44.560Z,1.80
2022-11-16T18:36:12.672Z,1.92
2022-11-16T18:38:40.341Z,2.00
2022-11-16T18:41:16.137Z,2.00
2022-11-16T18:43:54.535Z,2.00
2022-11-16T18:46:24.553Z,1.60
2022-11-16T18:48:52.304Z,2.33
2022-11-16T18:51:21.330Z,2.08
2022-11-16T18:53:48.657Z,2.00
2022-11-16T18:56:17.289Z,2.40
2022-11-16T18:58:53.376Z,2.20
2022-11-16T19:01:25.920Z,2.15
2022-11-16T19:03:54.214Z,2.50
2022-11-16T19:06:22.507Z,2.20
2022-11-16T19:08:56.463Z,2.63
2022-11-16T19:11:24.401Z,2.25
2022-11-16T19:14:07.647Z,2.60
2022-11-16T19:16:35.270Z,2.60
2022-11-16T19:19:02.729Z,2.17
2022-11-16T19:21:30.308Z,2.22
2022-11-16T19:23:58.107Z,2.35
2022-11-16T19:26:27.422Z,2.00
2022-11-16T19:28:55.495Z,2.20
2022-11-16T19:31:30.497Z,2.20
2022-11-16T19:33:59.101Z,2.58
2022-11-16T19:36:28.008Z,2.35
2022-11-16T19:38:55.696Z,2.63
2022-11-16T19:41:24.063Z,2.00
2022-11-16T19:43:52.923Z,2.20
2022-11-16T19:46:24.442Z,2.03
2022-11-16T19:48:52.080Z,2.38
2022-11-16T19:51:24.951Z,2.20
2022-11-16T19:53:52.260Z,2.13
2022-11-16T19:56:20.880Z,2.40
2022-11-16T19:58:48.236Z,2.38
2022-11-16T20:01:22.265Z,2.28
2022-11-16T20:03:50.234Z,4.15
2022-11-16T20:06:23.323Z,2.78
2022-11-16T20:09:02.499Z,2.97
2022-11-16T20:11:36.826Z,2.90
2022-11-16T20:14:07.620Z,2.55
2022-11-16T20:16:39.301Z,3.25
2022-11-16T20:19:08.120Z,2.78
2022-11-16T20:21:37.545Z,2.45
2022-11-16T20:24:07.013Z,2.33
2022-11-16T20:26:35.688Z,2.35
2022-11-16T20:29:03.393Z,2.50
2022-11-16T20:31:32.834Z,2.50
2022-11-16T20:34:02.157Z,3.30
2022-11-16T20:36:31.355Z,2.33
2022-11-16T20:38:59.455Z,2.53
2022-11-16T20:41:28.588Z,2.80
2022-11-16T20:43:57.917Z,2.50
2022-11-16T20:46:27.369Z,2.65
2022-11-16T20:48:57.324Z,2.70
2022-11-16T20:51:24.564Z,2.35
2022-11-16T20:53:52.460Z,2.60
2022-11-16T20:56:20.555Z,2.65
2022-11-16T20:58:48.831Z,2.75
2022-11-16T21:01:19.148Z,2.40
2022-11-16T21:03:46.490Z,2.28
2022-11-16T21:06:14.717Z,2.17
2022-11-16T21:08:42.513Z,2.42
2022-11-16T21:11:20.252Z,2.20
2022-11-16T21:14:06.596Z,2.25
2022-11-16T21:16:35.074Z,2.20
2022-11-16T21:19:02.489Z,2.35
2022-11-16T21:21:29.831Z,2.17
2022-11-16T21:23:57.424Z,2.78
2022-11-16T21:26:27.195Z,2.83
2022-11-16T21:28:55.759Z,2.67
2022-11-16T21:31:25.789Z,2.42
2022-11-16T21:33:53.755Z,2.45
2022-11-16T21:36:23.749Z,2.70
2022-11-16T21:38:51.916Z,2.50
2022-11-16T21:41:21.446Z,2.50
2022-11-16T21:43:48.942Z,2.40
2022-11-16T21:46:18.330Z,2.05
2022-11-16T21:48:47.946Z,2.45
2022-11-16T21:51:20.125Z,2.38
2022-11-16T21:53:47.566Z,2.40
2022-11-16T21:56:19.827Z,2.40
2022-11-16T21:58:47.125Z,2.33
2022-11-16T22:01:16.260Z,2.03
2022-11-16T22:03:43.633Z,1.90
2022-11-16T22:06:33.073Z,2.42
2022-11-16T22:09:00.862Z,2.35
2022-11-16T22:11:28.428Z,2.13
2022-11-16T22:13:55.340Z,2.80
2022-11-16T22:16:25.443Z,2.42
2022-11-16T22:18:52.621Z,2.45
2022-11-16T22:21:19.614Z,2.60
2022-11-16T22:23:46.908Z,2.25
2022-11-16T22:26:14.772Z,2.15
2022-11-16T22:28:42.315Z,2.78
2022-11-16T22:31:14.618Z,2.17
2022-11-16T22:33:42.041Z,2.45
2022-11-16T22:36:13.381Z,2.50
2022-11-16T22:38:40.547Z,2.25
2022-11-16T22:41:07.476Z,2.47
2022-11-16T22:43:36.100Z,2.80
2022-11-16T22:46:05.657Z,2.65
2022-11-16T22:48:37.902Z,2.70
2022-11-16T22:51:20.292Z,2.90
2022-11-16T22:53:47.569Z,2.95
2022-11-16T22:56:14.694Z,2.80
2022-11-16T22:58:41.794Z,3.03
2022-11-16T23:01:10.086Z,2.63
2022-11-16T23:03:37.838Z,2.72
2022-11-16T23:06:06.859Z,2.67
2022-11-16T23:08:35.014Z,2.63
2022-11-16T23:11:22.804Z,2.50
2022-11-16T23:14:08.599Z,2.58
2022-11-16T23:16:36.152Z,2.80
2022-11-16T23:19:03.573Z,3.15
2022-11-16T23:21:48.922Z,2.90
2022-11-16T23:24:34.217Z,3.00
2022-11-16T23:27:23.169Z,3.17
2022-11-16T23:29:50.106Z,2.95
2022-11-16T23:32:17.050Z,2.63
2022-11-16T23:34:43.938Z,2.63
2022-11-16T23:37:10.938Z,2.85
2022-11-16T23:39:37.977Z,2.78
2022-11-16T23:42:23.396Z,2.85
2022-11-16T23:44:50.263Z,3.03
2022-11-16T23:47:17.170Z,2.92
2022-11-16T23:49:44.099Z,2.63
2022-11-16T23:52:11.768Z,3.10
2022-11-16T23:54:38.656Z,2.63
2022-11-16T23:57:06.348Z,3.10
2022-11-16T23:59:33.560Z,2.65
